createdAt,value
2018-04-15T11:37:10.051Z,21.55
2018-04-15T11:39:21.170Z,21.45
2018-04-15T11:41:32.261Z,21.67
2018-04-15T11:43:43.388Z,21.77
2018-04-15T11:45:54.477Z,21.69
2018-04-15T11:48:05.645Z,21.67
2018-04-15T11:50:21.341Z,21.59
2018-04-15T11:52:32.392Z,21.56
2018-04-15T11:54:43.602Z,21.64
2018-04-15T11:56:54.700Z,21.62
2018-04-15T11:59:05.888Z,21.68
2018-04-15T12:01:16.999Z,21.65
2018-04-15T12:03:28.078Z,21.65
2018-04-15T12:05:39.222Z,21.51
2018-04-15T12:07:50.310Z,21.34
2018-04-15T12:10:01.531Z,21.20
2018-04-15T12:12:12.591Z,21.25
2018-04-15T12:14:23.744Z,21.28
2018-04-15T12:16:34.854Z,21.26
2018-04-15T12:18:46.021Z,21.29
2018-04-15T12:20:57.111Z,21.30
2018-04-15T12:23:08.222Z,21.33
2018-04-15T12:25:19.350Z,21.36
2018-04-15T12:27:30.430Z,21.41
2018-04-15T12:29:41.517Z,21.40
2018-04-15T12:31:52.622Z,21.37
2018-04-15T12:34:03.762Z,21.38
2018-04-15T12:36:14.844Z,21.45
2018-04-15T12:38:26.076Z,21.44
2018-04-15T12:40:37.190Z,21.34
2018-04-15T12:42:48.290Z,21.25
2018-04-15T12:44:59.386Z,21.27
2018-04-15T12:47:10.479Z,21.33
2018-04-15T12:49:21.646Z,21.46
2018-04-15T12:51:32.718Z,21.58
2018-04-15T12:53:43.875Z,21.64
2018-04-15T12:55:54.975Z,21.70
2018-04-15T12:58:06.230Z,21.70
2018-04-15T13:00:17.293Z,21.72
2018-04-15T13:02:28.381Z,21.72
2018-04-15T13:04:39.556Z,21.81
2018-04-15T13:06:50.668Z,21.79
2018-04-15T13:09:01.916Z,21.67
2018-04-15T13:11:12.970Z,21.67
2018-04-15T13:13:24.092Z,21.66
2018-04-15T13:15:35.208Z,21.60
2018-04-15T13:17:46.340Z,21.51
2018-04-15T13:19:57.410Z,21.54
2018-04-15T13:22:08.525Z,21.45
2018-04-15T13:24:19.601Z,21.40
2018-04-15T13:26:30.666Z,21.39
2018-04-15T13:28:41.798Z,21.47
2018-04-15T13:30:52.897Z,21.54
2018-04-15T13:33:04.018Z,21.58
2018-04-15T13:35:15.103Z,21.61
2018-04-15T13:37:26.153Z,21.69
2018-04-15T13:39:37.285Z,21.75
2018-04-15T13:41:48.377Z,21.72
2018-04-15T13:43:59.463Z,21.71
2018-04-15T13:46:10.662Z,21.72
2018-04-15T13:48:21.760Z,21.73
2018-04-15T13:50:32.902Z,21.77
2018-04-15T13:52:45.582Z,21.75
2018-04-15T13:54:56.672Z,21.72
2018-04-15T13:57:07.795Z,21.73
2018-04-15T13:59:18.932Z,21.64
2018-04-15T14:01:30.158Z,21.64
2018-04-15T14:03:41.291Z,21.73
2018-04-15T14:05:52.438Z,21.82
2018-04-15T14:08:04.462Z,21.87
2018-04-15T14:10:15.559Z,21.92
2018-04-15T14:12:26.674Z,21.98
2018-04-15T14:14:37.797Z,21.97
2018-04-15T14:16:48.944Z,21.99
2018-04-15T14:19:00.114Z,21.99
2018-04-15T14:21:11.182Z,22.03
2018-04-15T14:23:22.278Z,22.08
2018-04-15T14:25:37.163Z,22.01
2018-04-15T14:27:48.322Z,22.00
2018-04-15T14:29:59.440Z,21.97
2018-04-15T14:32:10.738Z,22.04
2018-04-15T14:34:21.917Z,22.11
2018-04-15T14:36:33.045Z,22.16
2018-04-15T14:38:44.147Z,22.25
2018-04-15T14:40:57.100Z,22.22
2018-04-15T14:43:08.209Z,22.19
2018-04-15T14:45:19.307Z,22.23
2018-04-15T14:47:30.504Z,22.31
2018-04-15T14:49:41.633Z,22.35
2018-04-15T14:51:52.750Z,22.36
2018-04-15T14:54:03.901Z,22.34
2018-04-15T14:56:15.042Z,22.30
2018-04-15T14:58:26.233Z,22.28
2018-04-15T15:00:37.318Z,22.23
2018-04-15T15:02:48.383Z,22.08
2018-04-15T15:05:02.319Z,22.04
2018-04-15T15:07:13.394Z,21.93
2018-04-15T15:09:24.684Z,21.81
2018-04-15T15:11:35.818Z,21.76
2018-04-15T15:13:46.897Z,21.72
2018-04-15T15:15:58.000Z,21.76
2018-04-15T15:18:09.102Z,21.72
2018-04-15T15:20:20.294Z,21.70
2018-04-15T15:22:31.370Z,21.58
2018-04-15T15:24:42.502Z,21.56
2018-04-15T15:26:53.627Z,21.50
2018-04-15T15:29:04.815Z,21.53
2018-04-15T15:31:15.951Z,21.46
2018-04-15T15:33:27.035Z,21.43
2018-04-15T15:35:38.157Z,21.43
2018-04-15T15:37:49.283Z,21.51
2018-04-15T15:40:00.436Z,21.54
2018-04-15T15:42:11.582Z,21.54
2018-04-15T15:44:22.701Z,21.53
2018-04-15T15:46:33.805Z,21.57
2018-04-15T15:48:44.912Z,21.60
2018-04-15T15:50:55.974Z,21.64
2018-04-15T15:53:07.078Z,21.67
2018-04-15T15:55:18.214Z,21.69
2018-04-15T15:57:29.442Z,21.74
2018-04-15T15:59:40.655Z,21.70
2018-04-15T16:01:51.748Z,21.64
2018-04-15T16:04:02.878Z,21.60
2018-04-15T16:06:14.001Z,21.59
2018-04-15T16:08:25.180Z,21.58
2018-04-15T16:10:36.299Z,21.52
2018-04-15T16:12:47.382Z,21.49
2018-04-15T16:14:58.502Z,21.50
2018-04-15T16:17:09.600Z,21.49
2018-04-15T16:19:20.810Z,21.54
2018-04-15T16:21:31.919Z,21.60
2018-04-15T16:23:43.126Z,21.58
2018-04-15T16:25:54.291Z,21.53
2018-04-15T16:28:05.387Z,21.47
2018-04-15T16:30:16.689Z,21.43
2018-04-15T16:32:27.928Z,21.40
2018-04-15T16:34:39.055Z,21.36
2018-04-15T16:36:50.115Z,21.32
2018-04-15T16:39:01.227Z,21.31
2018-04-15T16:41:12.386Z,21.28
2018-04-15T16:43:23.513Z,21.14
2018-04-15T16:45:34.773Z,21.03
2018-04-15T16:47:45.920Z,21.00
2018-04-15T16:49:57.063Z,21.01
2018-04-15T16:52:08.153Z,20.93
2018-04-15T16:54:19.268Z,20.92
2018-04-15T16:56:30.398Z,20.89
2018-04-15T16:58:41.518Z,20.79
2018-04-15T17:00:52.647Z,20.72
2018-04-15T17:03:03.745Z,20.62
2018-04-15T17:05:15.820Z,20.58
2018-04-15T17:07:27.046Z,20.52
2018-04-15T17:09:39.209Z,20.50
2018-04-15T17:11:50.494Z,20.46
2018-04-15T17:14:01.647Z,20.42
2018-04-15T17:16:12.823Z,20.38
2018-04-15T17:18:23.982Z,20.32
2018-04-15T17:20:35.108Z,20.29
2018-04-15T17:22:46.239Z,20.23
2018-04-15T17:24:57.333Z,20.17
2018-04-15T17:27:08.482Z,20.12
2018-04-15T17:29:19.639Z,20.05
2018-04-15T17:31:30.831Z,20.02
2018-04-15T17:33:41.966Z,19.97
2018-04-15T17:35:53.075Z,19.94
2018-04-15T17:38:04.167Z,19.88
2018-04-15T17:40:15.285Z,19.85
2018-04-15T17:42:26.460Z,19.79
2018-04-15T17:44:37.553Z,19.73
2018-04-15T17:46:48.632Z,19.70
2018-04-15T17:48:59.801Z,19.67
2018-04-15T17:51:11.039Z,19.61
2018-04-15T17:53:22.216Z,19.57
2018-04-15T17:55:33.506Z,19.54
2018-04-15T17:57:44.601Z,19.49
2018-04-15T17:59:55.719Z,19.46
2018-04-15T18:02:06.827Z,19.44
2018-04-15T18:04:17.924Z,19.43
2018-04-15T18:06:29.024Z,19.38
2018-04-15T18:08:40.154Z,19.38
2018-04-15T18:10:51.378Z,19.37
2018-04-15T18:13:02.486Z,19.35
2018-04-15T18:15:13.718Z,19.31
2018-04-15T18:17:24.824Z,19.28
2018-04-15T18:19:35.981Z,19.25
2018-04-15T18:21:47.222Z,19.22
2018-04-15T18:23:58.266Z,19.18
2018-04-15T18:26:09.491Z,19.17
2018-04-15T18:28:21.212Z,19.17
2018-04-15T18:30:32.341Z,19.14
2018-04-15T18:32:43.458Z,19.05
2018-04-15T18:34:54.563Z,18.89
2018-04-15T18:37:05.778Z,18.75
2018-04-15T18:39:16.871Z,18.69
2018-04-15T18:41:28.019Z,18.64
2018-04-15T18:43:39.163Z,18.59
2018-04-15T18:45:50.315Z,18.54
2018-04-15T18:48:01.449Z,18.45
2018-04-15T18:50:12.652Z,18.38
2018-04-15T18:52:23.696Z,18.30
2018-04-15T18:54:34.803Z,18.26
2018-04-15T18:56:45.927Z,18.22
2018-04-15T18:58:57.193Z,18.16
2018-04-15T19:01:08.298Z,18.10
2018-04-15T19:03:19.620Z,18.10
2018-04-15T19:05:30.892Z,18.07
2018-04-15T19:07:42.015Z,18.00
2018-04-15T19:09:53.223Z,17.95
2018-04-15T19:12:04.311Z,17.88
2018-04-15T19:14:15.525Z,17.84
2018-04-15T19:16:26.637Z,17.81
2018-04-15T19:18:37.791Z,17.77
2018-04-15T19:20:48.941Z,17.76
2018-04-15T19:23:00.092Z,17.71
2018-04-15T19:25:11.299Z,17.61
2018-04-15T19:27:22.427Z,17.53
2018-04-15T19:29:33.571Z,17.48
2018-04-15T19:31:44.831Z,17.48
2018-04-15T19:33:56.010Z,17.43
2018-04-15T19:36:07.161Z,17.43
2018-04-15T19:38:18.298Z,17.42
2018-04-15T19:40:30.470Z,17.38
2018-04-15T19:42:41.686Z,17.33
2018-04-15T19:44:52.881Z,17.31
2018-04-15T19:47:04.012Z,17.27
2018-04-15T19:49:15.554Z,17.24
2018-04-15T19:51:26.620Z,17.21
2018-04-15T19:53:37.925Z,17.18
2018-04-15T19:55:49.048Z,17.12
2018-04-15T19:58:00.179Z,17.07
2018-04-15T20:00:12.157Z,16.96
2018-04-15T20:02:23.330Z,16.93
2018-04-15T20:04:34.522Z,16.86
2018-04-15T20:06:45.773Z,16.85
2018-04-15T20:08:56.914Z,16.81
2018-04-15T20:11:08.068Z,16.80
2018-04-15T20:13:19.186Z,16.74
2018-04-15T20:15:30.313Z,16.76
2018-04-15T20:17:41.409Z,16.73
2018-04-15T20:19:52.514Z,16.71
2018-04-15T20:22:03.799Z,16.64
2018-04-15T20:24:14.975Z,16.56
2018-04-15T20:26:26.118Z,16.55
2018-04-15T20:28:37.383Z,16.53
2018-04-15T20:30:48.539Z,16.52
2018-04-15T20:32:59.751Z,16.46
2018-04-15T20:35:10.871Z,16.47
2018-04-15T20:37:22.041Z,16.47
2018-04-15T20:39:33.175Z,16.50
2018-04-15T20:41:44.262Z,16.51
2018-04-15T20:43:55.433Z,16.51
2018-04-15T20:46:06.611Z,16.47
2018-04-15T20:48:17.956Z,16.46
2018-04-15T20:50:29.253Z,16.44
2018-04-15T20:52:40.330Z,16.46
2018-04-15T20:54:51.482Z,16.40
2018-04-15T20:57:02.576Z,16.25
2018-04-15T20:59:13.682Z,16.10
2018-04-15T21:01:24.806Z,16.01
2018-04-15T21:03:35.916Z,15.94
2018-04-15T21:05:47.091Z,15.98
2018-04-15T21:07:58.178Z,16.02
2018-04-15T21:10:09.303Z,16.07
2018-04-15T21:12:20.490Z,16.11
2018-04-15T21:14:31.597Z,16.09
2018-04-15T21:16:42.757Z,16.06
2018-04-15T21:18:53.871Z,16.02
2018-04-15T21:21:04.994Z,16.03
2018-04-15T21:23:16.090Z,16.04
2018-04-15T21:25:27.231Z,16.07
2018-04-15T21:27:38.338Z,16.03
2018-04-15T21:29:49.416Z,16.02
2018-04-15T21:32:00.593Z,15.97
2018-04-15T21:34:11.770Z,15.96
2018-04-15T21:36:22.918Z,15.96
2018-04-15T21:38:34.059Z,16.01
2018-04-15T21:40:45.153Z,16.03
2018-04-15T21:42:56.248Z,16.07
2018-04-15T21:45:07.346Z,16.11
2018-04-15T21:47:18.449Z,16.05
2018-04-15T21:49:29.727Z,16.01
2018-04-15T21:51:40.854Z,16.02
2018-04-15T21:53:52.062Z,16.03
2018-04-15T21:56:03.207Z,16.03
2018-04-15T21:58:14.318Z,16.05
2018-04-15T22:00:25.478Z,16.08
2018-04-15T22:02:36.630Z,16.06
2018-04-15T22:04:47.739Z,16.07
2018-04-15T22:06:58.861Z,16.07
2018-04-15T22:09:10.096Z,16.02
2018-04-15T22:11:34.582Z,16.01
2018-04-15T22:13:45.775Z,16.01
2018-04-15T22:15:56.940Z,15.96
2018-04-15T22:18:08.139Z,15.95
2018-04-15T22:20:19.304Z,15.93
2018-04-15T22:22:30.410Z,15.98
2018-04-15T22:24:41.586Z,15.99
2018-04-15T22:26:52.683Z,16.00
2018-04-15T22:29:03.749Z,16.04
2018-04-15T22:31:14.853Z,16.04
2018-04-15T22:33:25.924Z,16.08
2018-04-15T22:35:37.006Z,16.12
2018-04-15T22:37:48.163Z,16.13
2018-04-15T22:39:59.254Z,16.11
2018-04-15T22:42:10.389Z,16.10
2018-04-15T22:44:21.462Z,16.10
2018-04-15T22:46:32.629Z,16.10
2018-04-15T22:48:44.847Z,16.12
2018-04-15T22:50:55.986Z,16.11
2018-04-15T22:53:07.075Z,16.16
2018-04-15T22:55:18.169Z,16.20
2018-04-15T22:57:29.234Z,16.26
2018-04-15T22:59:40.314Z,16.26
2018-04-15T23:01:51.484Z,16.30
2018-04-15T23:04:02.683Z,16.33
2018-04-15T23:06:13.741Z,16.32
2018-04-15T23:08:24.823Z,16.34
2018-04-15T23:10:35.964Z,16.36
2018-04-15T23:12:47.034Z,16.36
2018-04-15T23:14:58.117Z,16.35
2018-04-15T23:17:09.188Z,16.33
2018-04-15T23:19:20.274Z,16.34
2018-04-15T23:21:31.365Z,16.35
2018-04-15T23:23:42.514Z,16.31
2018-04-15T23:25:53.595Z,16.30
2018-04-15T23:28:04.718Z,16.25
2018-04-15T23:30:15.802Z,16.27
2018-04-15T23:32:26.881Z,16.27
2018-04-15T23:34:37.959Z,16.25
2018-04-15T23:36:49.057Z,16.23
2018-04-15T23:39:00.248Z,16.22
2018-04-15T23:41:11.350Z,16.22
2018-04-15T23:43:22.453Z,16.22
2018-04-15T23:45:33.542Z,16.20
2018-04-15T23:47:44.685Z,16.20
2018-04-15T23:49:55.753Z,16.17
2018-04-15T23:52:06.833Z,16.14
2018-04-15T23:54:17.942Z,16.12
2018-04-15T23:56:29.018Z,16.07
2018-04-15T23:58:40.129Z,16.01
